Time;durP1;ratioP1;P1;durP2;ratioP2;P2;SDS_P1;SDS_P2;PMS_P1;PMS_P2;Temp;Humidity;BMP_temperature;BMP_pressure;BME280_temperature;BME280_humidity;BME280_pressure;Samples;Min_cycle;Max_cycle;Signal;HPM_P1;HPM_P2
2022/07/13 00:01:01;;;;;;;6.13;4.13;;;21.50;1.00;;;;;;6078865;23;20026;-90
2022/07/13 00:03:31;;;;;;;5.72;3.38;;;21.50;1.00;;;;;;6078802;23;20442;-91
2022/07/13 00:06:04;;;;;;;6.93;3.50;;;21.50;1.00;;;;;;6129041;23;20036;-91
2022/07/13 00:08:40;;;;;;;5.25;3.63;;;21.50;1.00;;;;;;6079782;23;20033;-91
2022/07/13 00:11:13;;;;;;;7.25;3.83;;;21.50;1.00;;;;;;6079908;23;20446;-90
2022/07/13 00:13:48;;;;;;;5.88;3.25;;;21.50;1.00;;;;;;6102871;23;20469;-91
2022/07/13 00:16:28;;;;;;;5.50;2.78;;;21.50;1.00;;;;;;6081350;23;20097;-90
2022/07/13 00:19:02;;;;;;;5.60;3.17;;;21.50;1.00;;;;;;6079878;23;20018;-89
2022/07/13 00:21:35;;;;;;;4.43;3.40;;;21.50;1.00;;;;;;6102818;23;20328;-91
2022/07/13 00:24:05;;;;;;;5.68;3.15;;;21.40;1.00;;;;;;6103968;23;20323;-90
2022/07/13 00:26:35;;;;;;;6.90;2.92;;;21.40;1.00;;;;;;6103056;23;20018;-91
2022/07/13 00:29:08;;;;;;;4.13;2.47;;;21.40;1.00;;;;;;6079831;23;20028;-90
2022/07/13 00:31:38;;;;;;;3.83;3.35;;;21.50;1.00;;;;;;6109151;23;20018;-91
2022/07/13 00:34:14;;;;;;;2.60;2.40;;;21.50;1.00;;;;;;6119019;23;20018;-91
2022/07/13 00:36:41;;;;;;;3.15;2.25;;;21.50;1.00;;;;;;6097951;23;20032;-92
2022/07/13 00:39:11;;;;;;;5.55;3.05;;;21.50;1.00;;;;;;6102308;23;20001;-91
2022/07/13 00:41:51;;;;;;;5.20;3.13;;;21.50;1.00;;;;;;6129747;23;20022;-91
2022/07/13 00:44:27;;;;;;;4.25;3.78;;;21.50;1.00;;;;;;6114460;23;20053;-90
2022/07/13 00:47:06;;;;;;;4.50;3.20;;;21.40;1.00;;;;;;6081489;23;20093;-90
2022/07/13 00:49:50;;;;;;;8.05;3.20;;;21.40;1.00;;;;;;6106340;23;20372;-91
2022/07/13 00:52:23;;;;;;;6.00;3.00;;;21.40;1.00;;;;;;6103135;23;20442;-91
2022/07/13 00:54:54;;;;;;;5.43;3.45;;;21.40;1.00;;;;;;6079319;23;20041;-91
2022/07/13 00:57:25;;;;;;;5.25;3.25;;;21.40;1.00;;;;;;6102682;23;20025;-90
2022/07/13 01:00:06;;;;;;;4.93;2.70;;;21.40;1.00;;;;;;6079123;23;20024;-91
2022/07/13 01:02:36;;;;;;;3.97;2.85;;;21.40;1.00;;;;;;6128056;23;20069;-92
2022/07/13 01:05:07;;;;;;;4.88;2.90;;;21.40;1.00;;;;;;6102696;23;20312;-91
2022/07/13 01:07:35;;;;;;;4.78;2.60;;;21.40;1.00;;;;;;6102322;23;20049;-91
2022/07/13 01:10:09;;;;;;;4.10;2.70;;;21.40;1.00;;;;;;6078744;23;20026;-90
2022/07/13 01:12:40;;;;;;;5.40;2.53;;;21.40;1.00;;;;;;6079054;23;20022;-91
2022/07/13 01:15:15;;;;;;;5.00;2.38;;;21.40;1.00;;;;;;6103105;23;20029;-90
2022/07/13 01:17:45;;;;;;;4.53;2.75;;;21.40;1.00;;;;;;6102213;23;20089;-91
2022/07/13 01:20:17;;;;;;;4.38;2.30;;;21.30;1.00;;;;;;6101979;23;20477;-91
2022/07/13 01:22:57;;;;;;;4.53;2.38;;;21.40;1.00;;;;;;6078079;23;20017;-90
2022/07/13 01:25:28;;;;;;;3.88;3.03;;;21.40;1.00;;;;;;6103569;23;20045;-90
2022/07/13 01:28:07;;;;;;;5.05;2.80;;;21.30;1.00;;;;;;6109817;23;20018;-88
2022/07/13 01:30:44;;;;;;;5.55;2.83;;;21.30;1.00;;;;;;6099837;23;20082;-91
2022/07/13 01:33:19;;;;;;;5.72;2.55;;;21.30;1.00;;;;;;6107819;23;20022;-90
2022/07/13 01:35:59;;;;;;;6.47;3.53;;;21.30;1.00;;;;;;6122959;23;20014;-90
2022/07/13 01:38:30;;;;;;;3.20;2.28;;;21.30;1.00;;;;;;6102875;23;20088;-90
2022/07/13 01:41:02;;;;;;;4.18;2.80;;;21.20;1.00;;;;;;6102862;23;20069;-89
2022/07/13 01:43:32;;;;;;;6.15;2.75;;;21.30;1.00;;;;;;6078100;23;20053;-91
2022/07/13 01:46:06;;;;;;;4.32;2.55;;;21.20;1.00;;;;;;6079059;23;20331;-91
2022/07/13 01:48:37;;;;;;;;;;;21.20;1.00;;;;;;6079582;23;20029;-91
2022/07/13 01:51:16;;;;;;;5.00;2.50;;;21.20;1.00;;;;;;6079456;23;20226;-91
2022/07/13 01:53:47;;;;;;;4.00;2.28;;;21.20;1.00;;;;;;6078135;23;20028;-91
2022/07/13 01:56:20;;;;;;;4.65;2.38;;;21.20;1.00;;;;;;6102417;23;20026;-90
2022/07/13 01:58:50;;;;;;;4.30;2.42;;;21.20;1.00;;;;;;6082980;23;20018;-91
2022/07/13 02:01:23;;;;;;;2.72;2.15;;;21.20;1.00;;;;;;6111924;23;20018;-91
2022/07/13 02:03:52;;;;;;;3.20;2.10;;;21.20;1.00;;;;;;6122298;23;20338;-92
2022/07/13 02:06:25;;;;;;;2.67;1.85;;;21.20;1.00;;;;;;6126063;23;20018;-90
2022/07/13 02:09:04;;;;;;;5.65;2.47;;;21.20;1.00;;;;;;6106277;23;20012;-89
2022/07/13 02:11:40;;;;;;;2.65;2.00;;;21.20;1.00;;;;;;6092901;23;20438;-91
2022/07/13 02:14:19;;;;;;;3.03;1.95;;;21.20;1.00;;;;;;6080056;23;20052;-90
2022/07/13 02:17:58;;;;;;;2.90;1.80;;;21.20;1.00;;;;;;6127602;23;20068;-91
2022/07/13 02:35:19;;;;;;;4.07;2.38;;;21.10;1.00;;;;;;5810029;24;20022;-90
2022/07/13 02:39:23;;;;;;;6.43;3.30;;;21.10;1.00;;;;;;5792196;24;20027;-90
2022/07/13 02:43:42;;;;;;;;;;;;;;;;;;;;;
2022/07/13 03:02:38;;;;;;;;;;;;;;;;;;;;;
2022/07/13 03:06:05;;;;;;;8.05;3.90;;;21.10;1.00;;;;;;6101161;23;20517;-91
2022/07/13 03:09:36;;;;;;;3.15;2.30;;;21.00;1.00;;;;;;6081749;23;20033;-90
2022/07/13 03:13:29;;;;;;;5.63;3.83;;;21.00;1.00;;;;;;6083242;23;20097;-91
2022/07/13 03:17:27;;;;;;;4.70;3.13;;;21.00;1.00;;;;;;6101806;23;20053;-91
2022/07/13 03:20:41;;;;;;;4.68;3.33;;;21.00;1.00;;;;;;6009817;23;20145;-90
2022/07/13 03:23:22;;;;;;;4.95;2.97;;;21.00;1.00;;;;;;5966335;23;20043;-89
2022/07/13 03:25:58;;;;;;;8.00;4.28;;;20.90;1.00;;;;;;5994282;23;20079;-89
2022/07/13 03:28:29;;;;;;;5.30;3.85;;;20.90;1.00;;;;;;5999517;23;20016;-90
2022/07/13 03:31:03;;;;;;;6.68;3.42;;;20.90;1.00;;;;;;6001756;23;20030;-90
2022/07/13 03:33:40;;;;;;;8.27;2.85;;;20.90;1.00;;;;;;6019411;23;20019;-89
2022/07/13 03:36:13;;;;;;;4.88;3.30;;;21.00;1.00;;;;;;5987242;23;20028;-90
2022/07/13 03:38:43;;;;;;;3.55;2.88;;;20.90;1.00;;;;;;6007815;23;20102;-90
2022/07/13 03:41:14;;;;;;;7.57;4.03;;;20.90;1.00;;;;;;5962555;23;20023;-90
2022/07/13 03:43:42;;;;;;;4.82;3.17;;;20.90;1.00;;;;;;6011137;23;20076;-92
2022/07/13 03:46:12;;;;;;;7.38;4.22;;;20.80;1.00;;;;;;6009941;23;20456;-91
2022/07/13 03:48:45;;;;;;;4.10;2.83;;;20.90;1.00;;;;;;6011031;23;20116;-90
2022/07/13 03:51:19;;;;;;;3.72;2.97;;;20.90;1.00;;;;;;6010797;23;20106;-90
2022/07/13 03:54:05;;;;;;;4.93;2.83;;;20.90;1.00;;;;;;5964986;23;20027;-91
2022/07/13 03:56:47;;;;;;;9.23;2.30;;;20.90;1.00;;;;;;6015966;23;20100;-90
2022/07/13 03:59:20;;;;;;;4.53;2.72;;;20.80;1.00;;;;;;6080227;23;20028;-91
2022/07/13 04:01:57;;;;;;;3.45;2.47;;;20.80;1.00;;;;;;6079823;23;20346;-89
2022/07/13 04:04:36;;;;;;;5.00;3.20;;;20.90;1.00;;;;;;6102773;23;20434;-91
2022/07/13 04:07:54;;;;;;;2.95;2.38;;;20.90;1.00;;;;;;6103372;23;20450;-92
2022/07/13 04:10:43;;;;;;;5.18;3.78;;;20.90;1.00;;;;;;6102674;23;20022;-92
2022/07/13 04:14:02;;;;;;;2.67;2.33;;;20.80;1.00;;;;;;6101677;23;20010;-89
2022/07/13 04:16:31;;;;;;;5.43;3.40;;;20.90;1.00;;;;;;6075813;23;20022;-92
2022/07/13 04:52:30;;;;;;;4.47;3.22;;;20.80;1.00;;;;;;6151940;23;20013;-89
2022/07/13 04:55:00;;;;;;;2.30;2.08;;;20.80;1.00;;;;;;6118985;23;20330;-91
2022/07/13 04:57:34;;;;;;;2.60;2.13;;;20.80;1.00;;;;;;6081001;23;20029;-91
2022/07/13 05:00:06;;;;;;;6.18;2.53;;;20.80;1.00;;;;;;6102809;23;20515;-91
2022/07/13 05:02:37;;;;;;;2.40;2.00;;;20.80;1.00;;;;;;6079704;23;20022;-91
2022/07/13 05:05:09;;;;;;;3.78;2.40;;;20.80;1.00;;;;;;6078971;23;20468;-90
2022/07/13 05:07:39;;;;;;;3.28;2.28;;;20.80;1.00;;;;;;6079656;23;20109;-91
2022/07/13 05:10:13;;;;;;;4.13;2.45;;;20.80;1.00;;;;;;6080363;23;20026;-91
2022/07/13 05:12:54;;;;;;;3.30;2.10;;;20.80;1.00;;;;;;6081691;23;20025;-90
2022/07/13 05:15:41;;;;;;;2.70;2.15;;;20.80;1.00;;;;;;6105820;23;20017;-91
2022/07/13 05:18:13;;;;;;;3.25;2.47;;;20.80;1.00;;;;;;6080768;23;20331;-91
2022/07/13 05:20:44;;;;;;;5.80;2.80;;;20.80;1.00;;;;;;6080076;23;20346;-91
2022/07/13 05:23:13;;;;;;;2.45;2.15;;;20.80;1.00;;;;;;6098163;23;20022;-91
2022/07/13 05:25:44;;;;;;;3.55;2.22;;;20.80;1.00;;;;;;6108921;23;20398;-91
2022/07/13 05:28:13;;;;;;;4.65;2.63;;;20.80;1.00;;;;;;6148655;23;20078;-90
2022/07/13 05:30:56;;;;;;;2.60;2.28;;;20.80;1.00;;;;;;6082487;23;20379;-90
2022/07/13 05:33:23;;;;;;;3.75;2.45;;;20.80;1.00;;;;;;6102513;23;20434;-91
2022/07/13 05:35:54;;;;;;;4.90;2.83;;;20.80;1.00;;;;;;6101720;23;20068;-91
2022/07/13 05:38:30;;;;;;;3.08;2.30;;;20.80;1.00;;;;;;6102367;23;20018;-90
2022/07/13 05:44:08;;;;;;;2.15;1.77;;;20.90;1.00;;;;;;6101180;23;20014;-90
2022/07/13 05:46:42;;;;;;;4.30;2.42;;;20.80;1.00;;;;;;6101976;23;20026;-91
2022/07/13 05:49:26;;;;;;;3.47;2.20;;;20.90;1.00;;;;;;6095174;23;20026;-90
2022/07/13 05:52:07;;;;;;;5.55;2.97;;;20.80;1.00;;;;;;6126332;23;20104;-89
2022/07/13 06:38:31;;;;;;;4.38;2.60;;;21.00;1.00;;;;;;6156552;23;20022;-91
2022/07/13 06:41:13;;;;;;;4.53;2.17;;;20.90;1.00;;;;;;6107561;23;20021;-92
2022/07/13 06:44:19;;;;;;;4.43;2.47;;;20.90;1.00;;;;;;6145139;23;20101;-91
2022/07/13 06:47:11;;;;;;;4.03;2.30;;;20.90;1.00;;;;;;6101486;23;20028;-92
2022/07/13 06:50:00;;;;;;;3.45;1.80;;;21.00;1.00;;;;;;6079579;23;20347;-91
2022/07/13 06:53:26;;;;;;;;;;;;;;;;;;;;;
2022/07/13 06:56:41;;;;;;;3.63;2.10;;;21.00;1.00;;;;;;6100447;23;20074;-92
2022/07/13 06:59:48;;;;;;;4.15;2.33;;;21.10;1.00;;;;;;6028976;23;20034;-91
2022/07/13 07:02:18;;;;;;;7.20;2.70;;;21.00;1.00;;;;;;6014548;23;20039;-92
2022/07/13 07:04:59;;;;;;;5.28;2.40;;;21.10;1.00;;;;;;6014605;23;20074;-91
2022/07/13 07:07:52;;;;;;;2.95;2.10;;;21.10;1.00;;;;;;6021038;23;20050;-91
2022/07/13 07:10:43;;;;;;;2.97;2.08;;;21.10;1.00;;;;;;6015105;23;20161;-91
2022/07/13 07:13:58;;;;;;;4.70;2.47;;;21.10;1.00;;;;;;6019492;23;20111;-92
2022/07/13 07:16:37;;;;;;;5.22;2.28;;;21.20;1.00;;;;;;6014989;23;20107;-91
2022/07/13 07:19:30;;;;;;;9.18;2.83;;;21.20;1.00;;;;;;6040102;23;20003;-92
2022/07/13 07:22:12;;;;;;;5.68;2.40;;;21.20;1.00;;;;;;6037368;23;20023;-91
2022/07/13 07:24:45;;;;;;;10.82;3.92;;;21.20;1.00;;;;;;6016930;23;20056;-92
2022/07/13 07:27:19;;;;;;;7.53;4.05;;;21.30;1.00;;;;;;6042134;23;20027;-92
2022/07/13 07:29:49;;;;;;;8.63;3.42;;;21.30;1.00;;;;;;6071539;23;19998;-93
2022/07/13 07:32:21;;;;;;;5.45;3.67;;;21.40;1.00;;;;;;6106202;23;20075;-91
2022/07/13 07:34:56;;;;;;;6.45;3.30;;;21.40;1.00;;;;;;6107919;23;20442;-91
2022/07/13 07:37:28;;;;;;;7.60;3.63;;;21.40;1.00;;;;;;6094360;23;20032;-91
2022/07/13 07:39:58;;;;;;;3.40;2.60;;;21.40;1.00;;;;;;6081623;23;20021;-91
2022/07/13 07:42:29;;;;;;;3.90;1.95;;;21.30;1.00;;;;;;6080678;23;20018;-91
2022/07/13 07:44:56;;;;;;;7.20;2.55;;;21.30;1.00;;;;;;6104185;23;20109;-91
2022/07/13 07:47:29;;;;;;;4.65;2.75;;;21.30;1.00;;;;;;6081705;23;20020;-91
2022/07/13 07:49:56;;;;;;;5.53;2.78;;;21.30;1.00;;;;;;6103278;23;20017;-92
2022/07/13 07:52:27;;;;;;;3.38;2.10;;;21.40;1.00;;;;;;6104810;23;20022;-91
2022/07/13 07:55:17;;;;;;;4.40;2.30;;;21.40;1.00;;;;;;6107336;23;20088;-92
2022/07/13 07:57:49;;;;;;;3.92;2.00;;;21.40;1.00;;;;;;6103011;23;20079;-91
2022/07/13 08:00:18;;;;;;;2.88;1.77;;;21.40;1.00;;;;;;6079025;23;20018;-90
2022/07/13 08:02:45;;;;;;;5.20;3.25;;;21.50;1.00;;;;;;6102891;23;20346;-91
2022/07/13 08:05:14;;;;;;;2.65;1.92;;;21.60;1.00;;;;;;6079053;23;20022;-91
2022/07/13 08:07:45;;;;;;;3.38;2.10;;;21.50;1.00;;;;;;6102997;23;20018;-91
2022/07/13 08:10:18;;;;;;;4.35;2.38;;;21.60;1.00;;;;;;6102653;23;20022;-91
2022/07/13 08:12:56;;;;;;;2.88;2.10;;;21.50;1.00;;;;;;6104984;23;20088;-91
2022/07/13 08:15:26;;;;;;;4.25;2.67;;;21.50;1.00;;;;;;6102527;23;20026;-91
2022/07/13 08:17:54;;;;;;;3.92;2.78;;;21.50;1.00;;;;;;6078709;23;20061;-91
2022/07/13 08:20:29;;;;;;;3.65;1.90;;;21.60;1.00;;;;;;6103291;23;20108;-91
2022/07/13 08:23:01;;;;;;;2.45;2.05;;;21.60;1.00;;;;;;6103173;23;20014;-91
2022/07/13 08:25:35;;;;;;;4.78;2.17;;;21.50;1.00;;;;;;6078797;23;20022;-91
2022/07/13 08:28:07;;;;;;;2.22;1.92;;;21.50;1.00;;;;;;6079174;23;20074;-91
2022/07/13 08:30:45;;;;;;;4.53;2.22;;;21.50;1.00;;;;;;6102863;23;20040;-91
2022/07/13 08:38:34;;;;;;;11.48;2.60;;;21.50;1.00;;;;;;6102366;23;20026;-91
2022/07/13 08:38:54;;;;;;;6.65;2.30;;;21.80;1.00;;;;;;6102469;23;20060;-91
2022/07/13 08:41:27;;;;;;;4.43;2.30;;;21.70;1.00;;;;;;6080099;23;20052;-91
2022/07/13 08:44:02;;;;;;;3.85;2.00;;;21.70;1.00;;;;;;6106679;23;20026;-92
2022/07/13 08:46:41;;;;;;;9.02;2.17;;;21.70;1.00;;;;;;6084946;23;20014;-92
2022/07/13 08:49:18;;;;;;;2.35;1.73;;;21.70;1.00;;;;;;6084882;23;20026;-92
2022/07/13 08:51:50;;;;;;;4.63;1.90;;;21.60;1.00;;;;;;6112363;23;20022;-91
2022/07/13 08:54:20;;;;;;;3.05;2.08;;;21.60;1.00;;;;;;6108808;23;20414;-91
2022/07/13 08:56:49;;;;;;;5.10;2.67;;;21.60;1.00;;;;;;6130892;23;20018;-91
2022/07/13 08:59:17;;;;;;;5.97;2.15;;;21.60;1.00;;;;;;6104028;23;20101;-92
2022/07/13 09:01:50;;;;;;;6.22;2.53;;;21.60;1.00;;;;;;6081500;23;20024;-92
2022/07/13 09:04:21;;;;;;;4.63;1.70;;;21.60;1.00;;;;;;6079826;23;20057;-91
2022/07/13 09:06:48;;;;;;;4.70;1.83;;;21.60;1.00;;;;;;6080013;23;20109;-92
2022/07/13 09:09:27;;;;;;;3.97;2.35;;;21.60;1.00;;;;;;6129057;23;20045;-92
2022/07/13 09:12:37;;;;;;;4.03;1.80;;;21.70;1.00;;;;;;6084872;23;20021;-91
2022/07/13 09:15:13;;;;;;;4.53;1.95;;;21.80;1.00;;;;;;6082928;23;20022;-92
2022/07/13 09:17:47;;;;;;;4.65;2.03;;;21.80;1.00;;;;;;6087782;23;20025;-91
2022/07/13 09:20:20;;;;;;;2.85;1.90;;;21.90;1.00;;;;;;6123082;23;20085;-91
2022/07/13 09:23:01;;;;;;;4.93;2.25;;;21.90;1.00;;;;;;6083287;23;20046;-91
2022/07/13 09:25:39;;;;;;;6.28;2.30;;;21.90;1.00;;;;;;6081145;23;20022;-91
2022/07/13 09:28:16;;;;;;;4.68;1.90;;;22.00;1.00;;;;;;6103716;23;20397;-91
2022/07/13 09:30:46;;;;;;;6.03;2.58;;;22.00;1.00;;;;;;6078165;23;20026;-91
2022/07/13 09:33:35;;;;;;;4.78;1.85;;;22.00;1.00;;;;;;6079223;23;20033;-91
2022/07/13 09:36:11;;;;;;;2.75;1.55;;;21.80;1.00;;;;;;6078130;23;20423;-91
2022/07/13 09:38:43;;;;;;;7.22;1.90;;;21.80;1.00;;;;;;6078262;23;20032;-91
2022/07/13 09:41:16;;;;;;;6.72;2.53;;;21.80;1.00;;;;;;6127397;23;20066;-92
2022/07/13 09:47:04;;;;;;;2.63;2.22;;;22.00;1.00;;;;;;6102664;23;20109;-91
2022/07/13 09:49:44;;;;;;;5.15;2.88;;;22.00;1.00;;;;;;6080513;23;20112;-91
2022/07/13 09:52:18;;;;;;;2.58;2.05;;;22.00;1.00;;;;;;6102912;23;20112;-91
2022/07/13 09:54:51;;;;;;;3.33;2.70;;;22.00;1.00;;;;;;6078657;23;20427;-90
2022/07/13 09:57:23;;;;;;;4.68;2.22;;;22.00;1.00;;;;;;6081135;23;20069;-90
2022/07/13 09:59:52;;;;;;;2.67;2.30;;;22.00;1.00;;;;;;6079070;23;20101;-91
2022/07/13 10:02:20;;;;;;;4.90;2.72;;;22.10;1.00;;;;;;6079779;23;20101;-90
2022/07/13 10:04:51;;;;;;;6.13;2.25;;;22.00;1.00;;;;;;6101693;23;20020;-91
2022/07/13 10:07:19;;;;;;;2.95;2.22;;;22.10;1.00;;;;;;6129385;23;19994;-88
2022/07/13 10:09:46;;;;;;;4.35;2.13;;;22.10;1.00;;;;;;6129609;23;20504;-91
2022/07/13 10:12:14;;;;;;;3.55;2.33;;;22.20;1.00;;;;;;6129478;23;19994;-90
2022/07/13 10:14:44;;;;;;;3.03;2.30;;;22.30;1.00;;;;;;6102833;23;20010;-91
2022/07/13 10:17:23;;;;;;;2.78;1.95;;;22.20;1.00;;;;;;6134104;23;20085;-91
2022/07/13 10:19:55;;;;;;;5.53;2.75;;;22.30;1.00;;;;;;6078395;23;20025;-91
2022/07/13 10:22:25;;;;;;;2.25;1.90;;;22.30;1.00;;;;;;6101829;23;20025;-90
2022/07/13 10:24:57;;;;;;;2.97;2.33;;;22.40;1.00;;;;;;6077088;23;20101;-91
2022/07/13 10:27:27;;;;;;;6.20;3.03;;;22.30;1.00;;;;;;6101565;23;20018;-90
2022/07/13 10:30:01;;;;;;;2.15;1.73;;;22.30;1.00;;;;;;6100640;23;20026;-91
2022/07/13 10:32:44;;;;;;;2.33;1.65;;;22.40;1.00;;;;;;6127048;23;20026;-91
2022/07/13 10:35:16;;;;;;;3.55;2.17;;;22.60;1.00;;;;;;6101187;23;20476;-91
2022/07/13 10:37:56;;;;;;;1.98;1.52;;;22.70;1.00;;;;;;6077342;23;20407;-91
2022/07/13 10:40:51;;;;;;;5.43;1.80;;;22.80;1.00;;;;;;6102140;23;20014;-91
2022/07/13 10:43:23;;;;;;;4.85;1.58;;;22.80;1.00;;;;;;6099722;23;20026;-92
2022/07/13 10:46:00;;;;;;;2.15;1.45;;;22.90;1.00;;;;;;6079761;23;20354;-91
2022/07/13 10:48:55;;;;;;;3.10;2.10;;;22.90;1.00;;;;;;6081393;23;20021;-91
2022/07/13 10:51:26;;;;;;;3.35;1.77;;;22.90;1.00;;;;;;6103143;23;20028;-92
2022/07/13 10:54:00;;;;;;;3.85;2.17;;;23.00;1.00;;;;;;6079340;23;20382;-91
2022/07/13 10:56:34;;;;;;;2.53;1.52;;;23.00;1.00;;;;;;6081112;23;20453;-91
2022/07/13 10:59:45;;;;;;;3.55;1.35;;;22.90;1.00;;;;;;6104801;23;20021;-91
2022/07/13 11:02:48;;;;;;;2.10;1.50;;;23.10;1.00;;;;;;6079777;23;20026;-91
2022/07/13 11:05:19;;;;;;;6.03;1.70;;;23.30;1.00;;;;;;6104008;23;20018;-90
2022/07/13 11:07:49;;;;;;;2.95;2.17;;;23.30;1.00;;;;;;6131590;23;20018;-90
2022/07/13 11:10:30;;;;;;;2.63;1.40;;;23.30;1.00;;;;;;6098796;23;20017;-91
2022/07/13 11:13:08;;;;;;;4.57;2.28;;;23.60;1.00;;;;;;6141421;23;20022;-90
2022/07/13 11:15:44;;;;;;;2.10;1.40;;;23.60;1.00;;;;;;6090491;23;20025;-91
2022/07/13 11:18:31;;;;;;;2.08;1.52;;;23.80;1.00;;;;;;6103390;23;20026;-91
2022/07/13 11:21:02;;;;;;;5.78;1.52;;;23.70;1.00;;;;;;6079306;23;20025;-90
2022/07/13 11:27:26;;;;;;;2.38;1.33;;;24.00;1.00;;;;;;6129170;23;20018;-91
2022/07/13 11:30:31;;;;;;;4.22;1.83;;;24.20;1.00;;;;;;6082003;23;20033;-91
2022/07/13 11:33:18;;;;;;;3.78;2.13;;;24.40;1.00;;;;;;6080939;23;20408;-92
2022/07/13 11:35:53;;;;;;;4.05;1.23;;;24.20;1.00;;;;;;6080741;23;20053;-91
2022/07/13 11:38:28;;;;;;;3.42;1.70;;;24.40;1.00;;;;;;6103166;23;20030;-93
2022/07/13 11:41:07;;;;;;;2.78;1.15;;;24.50;1.00;;;;;;6103139;23;20014;-92
2022/07/13 11:43:48;;;;;;;3.55;2.13;;;24.50;1.00;;;;;;6079336;23;20022;-92
2022/07/13 11:46:26;;;;;;;4.43;1.38;;;24.20;1.00;;;;;;6081690;23;20049;-92
2022/07/13 11:49:04;;;;;;;4.47;1.50;;;24.30;1.00;;;;;;6105256;23;20014;-92
2022/07/13 11:51:44;;;;;;;2.85;1.83;;;24.40;1.00;;;;;;6079407;23;20026;-92
2022/07/13 11:54:42;;;;;;;3.55;2.08;;;24.60;1.00;;;;;;6079814;23;20022;-92
2022/07/13 11:57:38;;;;;;;2.60;1.63;;;24.60;1.00;;;;;;6083252;23;20029;-92
2022/07/13 12:00:08;;;;;;;3.50;1.42;;;24.70;1.00;;;;;;6078832;23;20018;-92
2022/07/13 12:02:38;;;;;;;6.00;2.22;;;25.00;1.00;;;;;;6128121;23;20473;-91
2022/07/13 12:05:08;;;;;;;6.82;2.30;;;25.20;1.00;;;;;;6078737;23;20018;-91
2022/07/13 12:08:00;;;;;;;2.33;1.83;;;25.30;1.00;;;;;;6105167;23;20064;-92
2022/07/13 12:10:27;;;;;;;7.70;2.05;;;25.40;1.00;;;;;;6102378;23;20029;-90
2022/07/13 12:12:58;;;;;;;3.72;1.48;;;25.30;1.00;;;;;;6102123;23;20053;-91
2022/07/13 12:15:26;;;;;;;5.75;1.80;;;25.30;1.00;;;;;;6102741;23;20093;-91
2022/07/13 12:17:53;;;;;;;5.82;2.10;;;25.40;1.00;;;;;;6102494;23;20049;-91
2022/07/13 12:20:22;;;;;;;6.65;2.53;;;25.40;1.00;;;;;;6102523;23;20060;-90
2022/07/13 12:22:57;;;;;;;6.53;1.58;;;24.80;1.00;;;;;;6078989;23;20438;-91
2022/07/13 12:25:31;;;;;;;5.03;1.50;;;25.00;1.00;;;;;;6102217;23;20049;-91
2022/07/13 12:28:01;;;;;;;7.15;2.10;;;25.30;1.00;;;;;;6079196;23;20024;-92
2022/07/13 12:30:33;;;;;;;3.20;1.70;;;25.30;1.00;;;;;;6103950;23;20097;-91
2022/07/13 12:33:07;;;;;;;8.57;3.00;;;25.20;1.00;;;;;;6128319;23;20018;-92
2022/07/13 12:35:41;;;;;;;4.15;1.45;;;25.40;1.00;;;;;;6080525;23;20215;-92
2022/07/13 12:38:15;;;;;;;5.40;2.38;;;25.30;1.00;;;;;;6104275;23;20021;-91
2022/07/13 12:40:54;;;;;;;7.57;2.35;;;25.50;1.00;;;;;;6092542;23;20038;-91
2022/07/13 12:43:32;;;;;;;5.90;2.08;;;25.30;1.00;;;;;;6129038;23;20049;-91
2022/07/13 12:46:04;;;;;;;6.50;2.13;;;25.70;1.00;;;;;;6130866;23;20018;-90
2022/07/13 12:48:34;;;;;;;5.05;1.55;;;25.50;1.00;;;;;;6155376;23;20002;-91
2022/07/13 12:51:12;;;;;;;6.82;1.92;;;25.60;1.00;;;;;;6130152;23;20006;-89
2022/07/13 12:53:54;;;;;;;5.53;1.65;;;25.80;1.00;;;;;;6087457;23;20025;-91
2022/07/13 12:56:54;;;;;;;9.45;1.65;;;26.00;1.00;;;;;;6104484;23;20449;-91
2022/07/13 12:59:23;;;;;;;10.77;2.70;;;25.50;1.00;;;;;;6103124;23;20048;-91
2022/07/13 13:02:07;;;;;;;5.88;2.35;;;25.20;1.00;;;;;;6102992;23;20026;-91
2022/07/13 13:04:41;;;;;;;7.72;1.73;;;25.70;1.00;;;;;;6099293;23;20378;-91
2022/07/13 13:07:11;;;;;;;9.05;1.60;;;25.90;1.00;;;;;;6111496;23;20515;-91
2022/07/13 13:09:56;;;;;;;8.75;2.05;;;25.70;1.00;;;;;;6094521;23;20021;-90
2022/07/13 13:12:25;;;;;;;9.02;2.35;;;26.00;1.00;;;;;;6102099;23;20026;-91
2022/07/13 13:14:52;;;;;;;3.72;1.63;;;25.90;1.00;;;;;;6101424;23;20081;-91
2022/07/13 13:17:23;;;;;;;6.55;1.35;;;25.60;1.00;;;;;;6079686;23;20025;-90
2022/07/13 13:19:56;;;;;;;8.13;1.65;;;25.70;1.00;;;;;;6103332;23;20042;-91
2022/07/13 13:22:40;;;;;;;8.75;1.85;;;26.00;1.00;;;;;;6127929;23;20025;-91
2022/07/13 13:25:21;;;;;;;5.05;1.90;;;26.10;1.00;;;;;;6128170;23;20319;-92
2022/07/13 13:27:58;;;;;;;8.35;2.42;;;25.90;1.00;;;;;;6102305;23;20434;-91
2022/07/13 13:30:43;;;;;;;9.60;2.30;;;25.80;1.00;;;;;;6079877;23;20072;-91
2022/07/13 13:33:17;;;;;;;5.43;2.00;;;26.00;1.00;;;;;;6078845;23;20021;-90
2022/07/13 13:35:48;;;;;;;5.25;2.70;;;26.30;1.00;;;;;;6077770;23;20509;-91
2022/07/13 13:38:18;;;;;;;7.63;2.05;;;25.80;1.00;;;;;;6101649;23;20049;-92
2022/07/13 13:43:59;;;;;;;6.45;1.48;;;26.30;1.00;;;;;;6014233;23;20019;-93
2022/07/13 13:47:18;;;;;;;8.80;2.15;;;26.20;1.00;;;;;;6099785;23;20038;-91
2022/07/13 13:50:33;;;;;;;5.80;1.73;;;26.30;1.00;;;;;;6080507;23;20021;-92
2022/07/13 13:54:25;;;;;;;7.65;1.90;;;26.60;1.00;;;;;;5982296;23;20404;-92
2022/07/13 13:57:49;;;;;;;8.45;1.80;;;26.40;1.00;;;;;;5988198;23;20028;-93
2022/07/13 14:00:43;;;;;;;5.28;1.42;;;26.50;1.00;;;;;;5991760;23;20411;-91
2022/07/13 14:04:30;;;;;;;6.38;1.48;;;26.50;1.00;;;;;;6009236;23;20397;-92
2022/07/13 14:07:04;;;;;;;6.10;1.27;;;26.50;1.00;;;;;;5933265;23;20073;-94
2022/07/13 14:09:32;;;;;;;7.10;1.73;;;26.30;1.00;;;;;;6010067;23;20023;-89
2022/07/13 14:11:59;;;;;;;6.70;1.75;;;26.40;1.00;;;;;;6009123;23;20028;-88
2022/07/13 14:14:26;;;;;;;5.75;1.27;;;26.60;1.00;;;;;;6009205;23;20051;-88
2022/07/13 14:30:54;;;;;;;9.45;1.83;;;27.00;1.00;;;;;;6157250;23;20061;-91
2022/07/13 14:33:24;;;;;;;8.45;1.45;;;26.50;1.00;;;;;;6104344;23;20045;-91
2022/07/13 14:35:55;;;;;;;7.25;2.10;;;26.80;1.00;;;;;;6077520;23;20013;-92
2022/07/13 14:38:35;;;;;;;6.85;1.88;;;27.20;1.00;;;;;;6101327;23;20018;-92
2022/07/13 14:41:19;;;;;;;9.65;1.63;;;26.80;1.00;;;;;;6079913;23;20022;-91
2022/07/13 14:43:51;;;;;;;4.25;1.05;;;27.40;1.00;;;;;;6078608;23;20054;-91
2022/07/13 14:46:28;;;;;;;10.50;2.42;;;27.80;1.00;;;;;;6101449;23;20021;-92
2022/07/13 14:48:57;;;;;;;8.27;1.92;;;27.20;1.00;;;;;;6077889;23;20025;-91
2022/07/13 14:51:52;;;;;;;9.18;1.50;;;27.20;1.00;;;;;;6101771;23;20497;-91
2022/07/13 14:54:34;;;;;;;5.03;1.00;;;27.40;1.00;;;;;;6078418;23;20026;-90
2022/07/13 14:57:04;;;;;;;5.85;1.65;;;27.60;1.00;;;;;;6121079;23;20089;-91
2022/07/13 14:59:38;;;;;;;4.05;1.00;;;27.60;1.00;;;;;;6105913;23;20029;-91
2022/07/13 15:02:15;;;;;;;6.05;1.25;;;27.90;1.00;;;;;;6097417;23;20018;-91
2022/07/13 15:04:44;;;;;;;4.93;1.40;;;28.40;1.00;;;;;;6083117;23;20022;-90
2022/07/13 15:07:19;;;;;;;3.70;1.20;;;28.30;1.00;;;;;;6078781;23;20021;-91
2022/07/13 15:09:49;;;;;;;4.65;1.38;;;28.50;1.00;;;;;;6100899;23;20022;-92
2022/07/13 15:12:30;;;;;;;5.18;1.63;;;29.00;1.00;;;;;;6105042;23;20022;-91
2022/07/13 15:15:03;;;;;;;5.43;1.20;;;29.20;1.00;;;;;;6108166;23;20021;-91
2022/07/13 15:17:53;;;;;;;4.15;1.30;;;29.00;1.00;;;;;;6102440;23;20319;-92
2022/07/13 15:20:33;;;;;;;;;;;29.30;1.00;;;;;;6107663;23;20026;-92
2022/07/13 15:23:04;;;;;;;7.00;1.65;;;29.60;1.00;;;;;;6104129;23;19928;-92
2022/07/13 15:25:46;;;;;;;2.97;1.02;;;29.10;1.00;;;;;;6128897;23;20006;-92
2022/07/13 15:28:33;;;;;;;6.15;1.15;;;29.20;1.00;;;;;;6110038;23;20014;-91
2022/07/13 15:31:03;;;;;;;7.43;2.42;;;29.30;1.00;;;;;;6101292;23;20472;-91
2022/07/13 15:33:32;;;;;;;7.35;2.65;;;29.60;1.00;;;;;;6127168;23;20543;-91
2022/07/13 15:36:03;;;;;;;7.18;1.20;;;29.50;1.00;;;;;;6077828;23;20025;-91
2022/07/13 15:38:34;;;;;;;3.47;0.95;;;29.50;1.00;;;;;;6129340;23;20022;-91
2022/07/13 15:41:23;;;;;;;6.80;1.60;;;29.90;1.00;;;;;;6103237;23;20022;-92
2022/07/13 15:44:01;;;;;;;6.50;1.58;;;30.00;1.00;;;;;;6080245;23;20022;-92
2022/07/13 15:46:34;;;;;;;10.73;1.45;;;30.10;1.00;;;;;;6079169;23;20390;-91
2022/07/13 15:49:06;;;;;;;6.50;1.27;;;30.60;1.00;;;;;;6102716;23;20037;-92
2022/07/13 15:51:37;;;;;;;5.53;1.50;;;30.60;1.00;;;;;;6102470;23;20358;-91
2022/07/13 15:54:24;;;;;;;7.22;1.42;;;30.50;1.00;;;;;;6079564;23;20109;-91
2022/07/13 15:57:00;;;;;;;4.68;1.73;;;30.90;1.00;;;;;;6080484;23;20026;-91
2022/07/13 15:59:27;;;;;;;5.38;1.38;;;30.90;1.00;;;;;;6102061;23;20026;-90
2022/07/13 16:01:57;;;;;;;7.35;1.73;;;30.60;1.00;;;;;;6101939;23;20022;-91
2022/07/13 16:04:27;;;;;;;7.55;1.42;;;30.30;1.00;;;;;;6078718;23;20026;-91
2022/07/13 16:06:58;;;;;;;8.52;1.23;;;30.70;1.00;;;;;;6102572;23;20335;-91
2022/07/13 16:09:32;;;;;;;7.78;1.15;;;30.80;1.00;;;;;;6080160;23;20108;-91
2022/07/13 16:12:02;;;;;;;5.88;1.40;;;30.70;1.00;;;;;;6078756;23;20532;-91
2022/07/13 16:14:29;;;;;;;3.47;0.82;;;31.00;1.00;;;;;;6102722;23;20026;-90
2022/07/13 16:16:57;;;;;;;4.97;1.10;;;30.90;1.00;;;;;;6077773;23;20025;-91
2022/07/13 16:19:28;;;;;;;6.88;2.10;;;30.70;1.00;;;;;;6102840;23;20018;-91